sensor_id;sensor_type;location;lat;lon;timestamp;temperature;humidity
3380;DHT22;1703;51.964;7.642;2023-04-01T00:00:25;11.30;99.90
3380;DHT22;1703;51.964;7.642;2023-04-01T00:02:52;11.30;99.90
3380;DHT22;1703;51.964;7.642;2023-04-01T00:05:19;11.30;99.90
3380;DHT22;1703;51.964;7.642;2023-04-01T00:07:46;11.30;99.90
3380;DHT22;1703;51.964;7.642;2023-04-01T00:10:13;11.20;99.90
3380;DHT22;1703;51.964;7.642;2023-04-01T00:12:41;11.20;99.90
3380;DHT22;1703;51.964;7.642;2023-04-01T00:15:09;11.30;99.90
3380;DHT22;1703;51.964;7.642;2023-04-01T00:17:38;11.30;99.90
3380;DHT22;1703;51.964;7.642;2023-04-01T00:20:06;11.30;99.90
3380;DHT22;1703;51.964;7.642;2023-04-01T00:22:35;11.20;99.90
3380;DHT22;1703;51.964;7.642;2023-04-01T00:25:02;11.20;99.90
3380;DHT22;1703;51.964;7.642;2023-04-01T00:27:29;11.20;99.90
3380;DHT22;1703;51.964;7.642;2023-04-01T00:29:56;11.20;99.90
3380;DHT22;1703;51.964;7.642;2023-04-01T00:32:23;11.20;99.90
3380;DHT22;1703;51.964;7.642;2023-04-01T00:34:52;11.20;99.90
3380;DHT22;1703;51.964;7.642;2023-04-01T00:37:19;11.20;99.90
3380;DHT22;1703;51.964;7.642;2023-04-01T00:39:47;11.20;99.90
3380;DHT22;1703;51.964;7.642;2023-04-01T00:42:14;11.20;99.90
3380;DHT22;1703;51.964;7.642;2023-04-01T00:44:41;11.20;99.90
3380;DHT22;1703;51.964;7.642;2023-04-01T00:47:08;11.20;99.90
3380;DHT22;1703;51.964;7.642;2023-04-01T00:49:37;11.20;99.90
3380;DHT22;1703;51.964;7.642;2023-04-01T00:52:08;11.20;99.90
3380;DHT22;1703;51.964;7.642;2023-04-01T00:54:37;11.20;99.90
3380;DHT22;1703;51.964;7.642;2023-04-01T00:57:08;11.20;99.90
3380;DHT22;1703;51.964;7.642;2023-04-01T00:59:40;11.20;99.90
3380;DHT22;1703;51.964;7.642;2023-04-01T01:02:11;11.20;99.90
3380;DHT22;1703;51.964;7.642;2023-04-01T01:04:39;11.20;99.90
3380;DHT22;1703;51.964;7.642;2023-04-01T01:07:15;11.20;99.90
3380;DHT22;1703;51.964;7.642;2023-04-01T01:09:48;11.10;99.90
3380;DHT22;1703;51.964;7.642;2023-04-01T01:12:20;11.10;99.90
3380;DHT22;1703;51.964;7.642;2023-04-01T01:14:55;11.10;99.90
3380;DHT22;1703;51.964;7.642;2023-04-01T01:17:32;11.10;99.90
3380;DHT22;1703;51.964;7.642;2023-04-01T01:23:22;11.10;99.90
3380;DHT22;1703;51.964;7.642;2023-04-01T01:26:07;11.10;99.90
3380;DHT22;1703;51.964;7.642;2023-04-01T01:28:46;11.10;99.90
3380;DHT22;1703;51.964;7.642;2023-04-01T01:31:20;11.10;99.90
3380;DHT22;1703;51.964;7.642;2023-04-01T01:34:06;11.10;99.90
3380;DHT22;1703;51.964;7.642;2023-04-01T01:36:40;11.10;99.90
3380;DHT22;1703;51.964;7.642;2023-04-01T01:39:12;11.10;99.90
3380;DHT22;1703;51.964;7.642;2023-04-01T01:41:41;11.10;99.90
3380;DHT22;1703;51.964;7.642;2023-04-01T01:44:11;11.10;99.90
3380;DHT22;1703;51.964;7.642;2023-04-01T01:46:41;11.10;99.90
3380;DHT22;1703;51.964;7.642;2023-04-01T01:49:10;11.20;99.90
3380;DHT22;1703;51.964;7.642;2023-04-01T01:51:39;11.10;99.90
3380;DHT22;1703;51.964;7.642;2023-04-01T01:54:12;11.10;99.90
3380;DHT22;1703;51.964;7.642;2023-04-01T01:56:41;11.10;99.90
3380;DHT22;1703;51.964;7.642;2023-04-01T01:59:11;11.20;99.90
3380;DHT22;1703;51.964;7.642;2023-04-01T02:01:41;11.20;99.90
3380;DHT22;1703;51.964;7.642;2023-04-01T02:04:13;11.20;99.90
3380;DHT22;1703;51.964;7.642;2023-04-01T02:06:46;11.20;99.90
3380;DHT22;1703;51.964;7.642;2023-04-01T02:09:14;11.10;99.90
3380;DHT22;1703;51.964;7.642;2023-04-01T02:11:44;11.10;99.90
3380;DHT22;1703;51.964;7.642;2023-04-01T02:14:14;11.10;99.90
3380;DHT22;1703;51.964;7.642;2023-04-01T02:16:46;11.10;99.90
3380;DHT22;1703;51.964;7.642;2023-04-01T02:19:17;11.10;99.90
3380;DHT22;1703;51.964;7.642;2023-04-01T02:21:51;11.10;99.90
3380;DHT22;1703;51.964;7.642;2023-04-01T02:24:20;11.10;99.90
3380;DHT22;1703;51.964;7.642;2023-04-01T02:26:50;11.10;99.90
3380;DHT22;1703;51.964;7.642;2023-04-01T02:29:19;11.10;99.90
3380;DHT22;1703;51.964;7.642;2023-04-01T02:31:48;11.10;99.90
3380;DHT22;1703;51.964;7.642;2023-04-01T02:34:15;11.10;99.90
3380;DHT22;1703;51.964;7.642;2023-04-01T02:36:42;11.10;99.90
3380;DHT22;1703;51.964;7.642;2023-04-01T02:39:10;11.10;99.90
3380;DHT22;1703;51.964;7.642;2023-04-01T02:41:41;11.10;99.90
3380;DHT22;1703;51.964;7.642;2023-04-01T02:44:09;11.10;99.90
3380;DHT22;1703;51.964;7.642;2023-04-01T02:46:36;11.20;99.90
3380;DHT22;1703;51.964;7.642;2023-04-01T02:49:04;11.10;99.90
3380;DHT22;1703;51.964;7.642;2023-04-01T02:51:31;11.20;99.90
3380;DHT22;1703;51.964;7.642;2023-04-01T02:53:58;11.00;99.90
3380;DHT22;1703;51.964;7.642;2023-04-01T02:56:26;11.00;99.90
3380;DHT22;1703;51.964;7.642;2023-04-01T02:58:54;11.00;99.90
3380;DHT22;1703;51.964;7.642;2023-04-01T03:01:21;11.00;99.90
3380;DHT22;1703;51.964;7.642;2023-04-01T03:03:48;10.90;99.90
3380;DHT22;1703;51.964;7.642;2023-04-01T03:06:16;10.90;99.90
3380;DHT22;1703;51.964;7.642;2023-04-01T03:08:43;10.90;99.90
3380;DHT22;1703;51.964;7.642;2023-04-01T03:11:11;10.90;99.90
3380;DHT22;1703;51.964;7.642;2023-04-01T03:13:40;10.90;99.90
3380;DHT22;1703;51.964;7.642;2023-04-01T03:16:07;10.90;99.90
3380;DHT22;1703;51.964;7.642;2023-04-01T03:18:34;10.90;99.90
3380;DHT22;1703;51.964;7.642;2023-04-01T03:21:13;10.80;99.90
3380;DHT22;1703;51.964;7.642;2023-04-01T03:23:40;10.80;99.90
3380;DHT22;1703;51.964;7.642;2023-04-01T03:26:06;10.80;99.90
3380;DHT22;1703;51.964;7.642;2023-04-01T03:28:33;10.80;99.90
3380;DHT22;1703;51.964;7.642;2023-04-01T03:31:02;10.70;99.90
3380;DHT22;1703;51.964;7.642;2023-04-01T03:33:36;10.70;99.90
3380;DHT22;1703;51.964;7.642;2023-04-01T03:36:03;10.70;99.90
3380;DHT22;1703;51.964;7.642;2023-04-01T03:38:32;10.70;99.90
3380;DHT22;1703;51.964;7.642;2023-04-01T03:40:59;10.70;99.90
3380;DHT22;1703;51.964;7.642;2023-04-01T03:43:26;10.70;99.90
3380;DHT22;1703;51.964;7.642;2023-04-01T03:45:53;10.60;99.90
3380;DHT22;1703;51.964;7.642;2023-04-01T03:48:21;10.60;99.90
3380;DHT22;1703;51.964;7.642;2023-04-01T03:50:48;10.60;99.90
3380;DHT22;1703;51.964;7.642;2023-04-01T03:53:15;10.60;99.90
3380;DHT22;1703;51.964;7.642;2023-04-01T03:55:44;10.70;99.90
3380;DHT22;1703;51.964;7.642;2023-04-01T03:58:12;10.70;99.90
3380;DHT22;1703;51.964;7.642;2023-04-01T04:00:40;10.70;99.90
3380;DHT22;1703;51.964;7.642;2023-04-01T04:03:08;10.80;99.90
3380;DHT22;1703;51.964;7.642;2023-04-01T04:05:37;10.80;99.90
3380;DHT22;1703;51.964;7.642;2023-04-01T04:08:04;10.80;99.90
3380;DHT22;1703;51.964;7.642;2023-04-01T04:10:31;10.70;99.90
3380;DHT22;1703;51.964;7.642;2023-04-01T04:13:00;10.70;99.90
3380;DHT22;1703;51.964;7.642;2023-04-01T04:15:29;10.80;99.90
3380;DHT22;1703;51.964;7.642;2023-04-01T04:17:56;10.80;99.90
3380;DHT22;1703;51.964;7.642;2023-04-01T04:20:23;10.80;99.90
3380;DHT22;1703;51.964;7.642;2023-04-01T04:22:51;10.80;99.90
3380;DHT22;1703;51.964;7.642;2023-04-01T04:25:18;10.90;99.90
3380;DHT22;1703;51.964;7.642;2023-04-01T04:27:45;10.90;99.90
3380;DHT22;1703;51.964;7.642;2023-04-01T04:30:14;10.90;99.90
3380;DHT22;1703;51.964;7.642;2023-04-01T04:32:40;10.90;99.90
3380;DHT22;1703;51.964;7.642;2023-04-01T04:35:09;10.90;99.90
3380;DHT22;1703;51.964;7.642;2023-04-01T04:37:36;10.90;99.90
3380;DHT22;1703;51.964;7.642;2023-04-01T04:40:06;11.00;99.90
3380;DHT22;1703;51.964;7.642;2023-04-01T04:42:33;11.00;99.90
3380;DHT22;1703;51.964;7.642;2023-04-01T04:45:06;11.00;99.90
3380;DHT22;1703;51.964;7.642;2023-04-01T04:47:34;11.00;99.90
3380;DHT22;1703;51.964;7.642;2023-04-01T04:50:01;11.00;99.90
3380;DHT22;1703;51.964;7.642;2023-04-01T04:52:28;11.00;99.90
3380;DHT22;1703;51.964;7.642;2023-04-01T04:54:55;11.00;99.90
3380;DHT22;1703;51.964;7.642;2023-04-01T04:57:23;11.00;99.90
3380;DHT22;1703;51.964;7.642;2023-04-01T04:59:54;11.00;99.90
3380;DHT22;1703;51.964;7.642;2023-04-01T05:02:47;11.00;99.90
3380;DHT22;1703;51.964;7.642;2023-04-01T05:05:14;10.90;99.90
3380;DHT22;1703;51.964;7.642;2023-04-01T05:07:41;11.00;99.90
3380;DHT22;1703;51.964;7.642;2023-04-01T05:10:08;11.00;99.90
3380;DHT22;1703;51.964;7.642;2023-04-01T05:12:37;11.00;99.90
3380;DHT22;1703;51.964;7.642;2023-04-01T05:15:07;10.90;99.90
3380;DHT22;1703;51.964;7.642;2023-04-01T05:17:35;10.90;99.90
3380;DHT22;1703;51.964;7.642;2023-04-01T05:20:03;11.00;99.90
3380;DHT22;1703;51.964;7.642;2023-04-01T05:22:30;11.00;99.90
3380;DHT22;1703;51.964;7.642;2023-04-01T05:24:57;11.00;99.90
3380;DHT22;1703;51.964;7.642;2023-04-01T05:27:24;11.00;99.90
3380;DHT22;1703;51.964;7.642;2023-04-01T05:29:52;11.00;99.90
3380;DHT22;1703;51.964;7.642;2023-04-01T05:32:49;11.00;99.90
3380;DHT22;1703;51.964;7.642;2023-04-01T05:35:16;11.00;99.90
3380;DHT22;1703;51.964;7.642;2023-04-01T05:37:43;11.00;99.90
3380;DHT22;1703;51.964;7.642;2023-04-01T05:40:11;11.00;99.90
3380;DHT22;1703;51.964;7.642;2023-04-01T05:42:38;11.00;99.90
3380;DHT22;1703;51.964;7.642;2023-04-01T05:45:07;11.00;99.90
3380;DHT22;1703;51.964;7.642;2023-04-01T05:47:54;11.00;99.90
3380;DHT22;1703;51.964;7.642;2023-04-01T05:50:22;11.00;99.90
3380;DHT22;1703;51.964;7.642;2023-04-01T05:52:48;11.00;99.90
3380;DHT22;1703;51.964;7.642;2023-04-01T05:55:16;11.00;99.90
3380;DHT22;1703;51.964;7.642;2023-04-01T05:57:45;11.00;99.90
3380;DHT22;1703;51.964;7.642;2023-04-01T06:00:15;11.10;99.90
3380;DHT22;1703;51.964;7.642;2023-04-01T06:02:43;11.10;99.90
3380;DHT22;1703;51.964;7.642;2023-04-01T06:05:15;11.10;99.90
3380;DHT22;1703;51.964;7.642;2023-04-01T06:07:43;11.10;99.90
3380;DHT22;1703;51.964;7.642;2023-04-01T06:10:13;11.10;99.90
3380;DHT22;1703;51.964;7.642;2023-04-01T06:12:47;11.20;99.90
3380;DHT22;1703;51.964;7.642;2023-04-01T06:15:34;11.20;99.90
3380;DHT22;1703;51.964;7.642;2023-04-01T06:18:32;11.20;99.90
3380;DHT22;1703;51.964;7.642;2023-04-01T06:21:14;11.30;99.90
3380;DHT22;1703;51.964;7.642;2023-04-01T06:24:07;11.30;99.90
3380;DHT22;1703;51.964;7.642;2023-04-01T06:26:44;11.30;99.90
3380;DHT22;1703;51.964;7.642;2023-04-01T06:32:36;11.40;99.90
3380;DHT22;1703;51.964;7.642;2023-04-01T06:35:25;11.40;99.90
3380;DHT22;1703;51.964;7.642;2023-04-01T06:38:17;11.40;99.90
3380;DHT22;1703;51.964;7.642;2023-04-01T06:41:17;11.40;99.90
3380;DHT22;1703;51.964;7.642;2023-04-01T06:43:58;11.40;99.90
3380;DHT22;1703;51.964;7.642;2023-04-01T06:46:47;11.40;99.90
3380;DHT22;1703;51.964;7.642;2023-04-01T06:49:48;11.40;99.90
3380;DHT22;1703;51.964;7.642;2023-04-01T06:52:43;11.40;99.90
3380;DHT22;1703;51.964;7.642;2023-04-01T06:55:36;11.50;99.90
3380;DHT22;1703;51.964;7.642;2023-04-01T06:58:15;11.50;99.90
3380;DHT22;1703;51.964;7.642;2023-04-01T07:00:47;11.50;99.90
3380;DHT22;1703;51.964;7.642;2023-04-01T07:03:20;11.60;99.90
3380;DHT22;1703;51.964;7.642;2023-04-01T07:05:49;11.70;99.90
3380;DHT22;1703;51.964;7.642;2023-04-01T07:08:20;11.70;99.90
3380;DHT22;1703;51.964;7.642;2023-04-01T07:10:51;11.70;99.90
3380;DHT22;1703;51.964;7.642;2023-04-01T07:13:41;11.80;99.90
3380;DHT22;1703;51.964;7.642;2023-04-01T07:16:18;11.80;99.90
3380;DHT22;1703;51.964;7.642;2023-04-01T07:18:49;11.90;99.90
3380;DHT22;1703;51.964;7.642;2023-04-01T07:21:25;11.90;99.90
3380;DHT22;1703;51.964;7.642;2023-04-01T07:23:59;11.90;99.90
3380;DHT22;1703;51.964;7.642;2023-04-01T07:26:57;12.00;99.90
3380;DHT22;1703;51.964;7.642;2023-04-01T07:29:27;12.00;99.90
3380;DHT22;1703;51.964;7.642;2023-04-01T07:32:22;12.00;99.90
3380;DHT22;1703;51.964;7.642;2023-04-01T07:35:07;12.00;99.90
3380;DHT22;1703;51.964;7.642;2023-04-01T07:37:45;12.00;99.90
3380;DHT22;1703;51.964;7.642;2023-04-01T07:40:23;12.00;99.90
3380;DHT22;1703;51.964;7.642;2023-04-01T07:43:07;11.90;99.90
3380;DHT22;1703;51.964;7.642;2023-04-01T07:45:48;12.00;99.90
3380;DHT22;1703;51.964;7.642;2023-04-01T07:48:26;11.90;99.90
3380;DHT22;1703;51.964;7.642;2023-04-01T07:51:02;11.90;99.90
3380;DHT22;1703;51.964;7.642;2023-04-01T07:53:37;11.90;99.90
3380;DHT22;1703;51.964;7.642;2023-04-01T07:56:08;11.90;99.90
3380;DHT22;1703;51.964;7.642;2023-04-01T07:58:47;11.90;99.90
3380;DHT22;1703;51.964;7.642;2023-04-01T08:01:43;11.90;99.90
3380;DHT22;1703;51.964;7.642;2023-04-01T08:04:27;11.90;99.90
3380;DHT22;1703;51.964;7.642;2023-04-01T08:07:04;12.00;99.90
3380;DHT22;1703;51.964;7.642;2023-04-01T08:09:43;12.00;99.90
3380;DHT22;1703;51.964;7.642;2023-04-01T08:12:44;12.10;99.90
3380;DHT22;1703;51.964;7.642;2023-04-01T08:15:37;12.10;99.90
3380;DHT22;1703;51.964;7.642;2023-04-01T08:18:20;12.20;99.90
3380;DHT22;1703;51.964;7.642;2023-04-01T08:20:52;12.20;99.90
3380;DHT22;1703;51.964;7.642;2023-04-01T08:23:24;12.10;99.90
3380;DHT22;1703;51.964;7.642;2023-04-01T08:25:56;12.20;99.90
3380;DHT22;1703;51.964;7.642;2023-04-01T08:28:32;12.20;99.90
3380;DHT22;1703;51.964;7.642;2023-04-01T08:31:05;12.30;99.90
3380;DHT22;1703;51.964;7.642;2023-04-01T08:33:33;12.30;99.90
3380;DHT22;1703;51.964;7.642;2023-04-01T08:36:08;12.30;99.90
3380;DHT22;1703;51.964;7.642;2023-04-01T08:38:40;12.40;99.90
3380;DHT22;1703;51.964;7.642;2023-04-01T08:41:26;12.30;99.90
3380;DHT22;1703;51.964;7.642;2023-04-01T08:44:26;12.30;99.90
3380;DHT22;1703;51.964;7.642;2023-04-01T08:47:20;12.30;99.90
3380;DHT22;1703;51.964;7.642;2023-04-01T08:50:01;12.30;99.90
3380;DHT22;1703;51.964;7.642;2023-04-01T08:52:51;12.40;99.90
3380;DHT22;1703;51.964;7.642;2023-04-01T08:55:51;12.40;99.90
3380;DHT22;1703;51.964;7.642;2023-04-01T08:58:32;12.40;99.90
3380;DHT22;1703;51.964;7.642;2023-04-01T09:01:32;12.40;99.90
3380;DHT22;1703;51.964;7.642;2023-04-01T09:04:32;12.40;99.90
3380;DHT22;1703;51.964;7.642;2023-04-01T09:07:13;12.40;99.90
3380;DHT22;1703;51.964;7.642;2023-04-01T09:10:11;12.40;99.90
3380;DHT22;1703;51.964;7.642;2023-04-01T09:12:59;12.40;99.90
3380;DHT22;1703;51.964;7.642;2023-04-01T09:15:42;12.40;99.90
3380;DHT22;1703;51.964;7.642;2023-04-01T09:18:49;12.50;99.90
3380;DHT22;1703;51.964;7.642;2023-04-01T09:21:36;12.50;99.90
3380;DHT22;1703;51.964;7.642;2023-04-01T09:24:33;12.50;99.90
3380;DHT22;1703;51.964;7.642;2023-04-01T09:27:10;12.60;99.90
3380;DHT22;1703;51.964;7.642;2023-04-01T09:36:04;12.60;99.90
3380;DHT22;1703;51.964;7.642;2023-04-01T09:38:44;12.70;99.90
3380;DHT22;1703;51.964;7.642;2023-04-01T09:41:22;12.70;99.90
3380;DHT22;1703;51.964;7.642;2023-04-01T09:44:20;12.70;99.90
3380;DHT22;1703;51.964;7.642;2023-04-01T09:47:21;12.70;99.90
3380;DHT22;1703;51.964;7.642;2023-04-01T09:50:04;12.70;99.90
3380;DHT22;1703;51.964;7.642;2023-04-01T09:52:40;12.70;99.90
3380;DHT22;1703;51.964;7.642;2023-04-01T09:59:09;12.70;99.90
3380;DHT22;1703;51.964;7.642;2023-04-01T10:05:39;12.70;99.90
3380;DHT22;1703;51.964;7.642;2023-04-01T10:08:36;12.70;99.90
3380;DHT22;1703;51.964;7.642;2023-04-01T10:14:30;12.80;99.90
3380;DHT22;1703;51.964;7.642;2023-04-01T10:17:30;12.80;99.90
3380;DHT22;1703;51.964;7.642;2023-04-01T10:23:22;12.80;99.90
3380;DHT22;1703;51.964;7.642;2023-04-01T10:29:42;12.80;99.90
3380;DHT22;1703;51.964;7.642;2023-04-01T10:32:30;12.80;99.90
3380;DHT22;1703;51.964;7.642;2023-04-01T10:35:20;12.90;99.90
3380;DHT22;1703;51.964;7.642;2023-04-01T10:38:15;12.90;99.90
3380;DHT22;1703;51.964;7.642;2023-04-01T10:40:57;12.90;99.90
3380;DHT22;1703;51.964;7.642;2023-04-01T10:50:38;13.10;99.90
3380;DHT22;1703;51.964;7.642;2023-04-01T10:53:37;13.20;99.90
3380;DHT22;1703;51.964;7.642;2023-04-01T10:56:43;13.30;99.90
3380;DHT22;1703;51.964;7.642;2023-04-01T11:00:24;13.40;99.90
3380;DHT22;1703;51.964;7.642;2023-04-01T11:07:29;14.00;99.90
3380;DHT22;1703;51.964;7.642;2023-04-01T11:10:22;14.20;99.90
3380;DHT22;1703;51.964;7.642;2023-04-01T11:13:31;14.20;99.90
3380;DHT22;1703;51.964;7.642;2023-04-01T11:22:50;14.10;99.90
3380;DHT22;1703;51.964;7.642;2023-04-01T11:25:26;14.10;99.90
3380;DHT22;1703;51.964;7.642;2023-04-01T11:28:43;14.10;99.90
3380;DHT22;1703;51.964;7.642;2023-04-01T11:31:28;14.00;99.90
3380;DHT22;1703;51.964;7.642;2023-04-01T11:34:03;14.00;99.90
3380;DHT22;1703;51.964;7.642;2023-04-01T11:36:44;13.90;99.90
3380;DHT22;1703;51.964;7.642;2023-04-01T11:39:26;13.90;99.90
3380;DHT22;1703;51.964;7.642;2023-04-01T11:42:11;13.90;99.90
3380;DHT22;1703;51.964;7.642;2023-04-01T11:45:12;13.90;99.90
3380;DHT22;1703;51.964;7.642;2023-04-01T11:48:03;13.70;99.90
3380;DHT22;1703;51.964;7.642;2023-04-01T11:50:43;13.60;99.90
3380;DHT22;1703;51.964;7.642;2023-04-01T11:53:27;13.40;99.90
3380;DHT22;1703;51.964;7.642;2023-04-01T11:56:08;13.40;99.90
3380;DHT22;1703;51.964;7.642;2023-04-01T12:01:54;13.30;99.90
3380;DHT22;1703;51.964;7.642;2023-04-01T12:04:36;13.30;99.90
3380;DHT22;1703;51.964;7.642;2023-04-01T12:07:19;13.20;99.90
3380;DHT22;1703;51.964;7.642;2023-04-01T12:09:55;13.20;99.90
3380;DHT22;1703;51.964;7.642;2023-04-01T12:12:29;13.10;99.90
3380;DHT22;1703;51.964;7.642;2023-04-01T12:15:02;13.00;99.90
3380;DHT22;1703;51.964;7.642;2023-04-01T12:17:39;13.00;99.90
3380;DHT22;1703;51.964;7.642;2023-04-01T12:20:23;12.90;99.90
3380;DHT22;1703;51.964;7.642;2023-04-01T12:22:58;13.10;99.90
3380;DHT22;1703;51.964;7.642;2023-04-01T12:25:44;13.10;99.90
3380;DHT22;1703;51.964;7.642;2023-04-01T12:28:22;13.10;99.90
3380;DHT22;1703;51.964;7.642;2023-04-01T12:31:03;13.20;99.90
3380;DHT22;1703;51.964;7.642;2023-04-01T12:33:44;13.30;99.90
3380;DHT22;1703;51.964;7.642;2023-04-01T12:36:19;13.10;99.90
3380;DHT22;1703;51.964;7.642;2023-04-01T12:39:02;13.10;99.90
3380;DHT22;1703;51.964;7.642;2023-04-01T12:41:39;13.00;99.90
3380;DHT22;1703;51.964;7.642;2023-04-01T12:44:39;13.00;99.90
3380;DHT22;1703;51.964;7.642;2023-04-01T12:47:21;12.80;99.90
3380;DHT22;1703;51.964;7.642;2023-04-01T12:50:16;12.80;99.90
3380;DHT22;1703;51.964;7.642;2023-04-01T12:52:58;12.80;99.90
3380;DHT22;1703;51.964;7.642;2023-04-01T12:55:36;12.80;99.90
3380;DHT22;1703;51.964;7.642;2023-04-01T12:58:25;12.90;99.90
3380;DHT22;1703;51.964;7.642;2023-04-01T13:04:37;12.90;99.90
3380;DHT22;1703;51.964;7.642;2023-04-01T13:10:36;12.80;99.90
3380;DHT22;1703;51.964;7.642;2023-04-01T13:13:19;12.70;99.90
3380;DHT22;1703;51.964;7.642;2023-04-01T13:15:52;12.80;99.90
3380;DHT22;1703;51.964;7.642;2023-04-01T13:18:30;12.80;99.90
3380;DHT22;1703;51.964;7.642;2023-04-01T13:21:04;12.80;99.90
3380;DHT22;1703;51.964;7.642;2023-04-01T13:23:44;12.70;99.90
3380;DHT22;1703;51.964;7.642;2023-04-01T13:26:24;12.80;99.90
3380;DHT22;1703;51.964;7.642;2023-04-01T13:28:59;12.80;99.90
3380;DHT22;1703;51.964;7.642;2023-04-01T13:31:37;12.80;99.90
3380;DHT22;1703;51.964;7.642;2023-04-01T13:34:23;12.90;99.90
3380;DHT22;1703;51.964;7.642;2023-04-01T13:37:03;12.90;99.90
3380;DHT22;1703;51.964;7.642;2023-04-01T13:39:57;12.90;99.90
3380;DHT22;1703;51.964;7.642;2023-04-01T13:42:35;13.00;99.90
3380;DHT22;1703;51.964;7.642;2023-04-01T13:45:12;13.00;99.90
3380;DHT22;1703;51.964;7.642;2023-04-01T13:47:54;13.00;99.90
3380;DHT22;1703;51.964;7.642;2023-04-01T13:50:46;13.00;99.90
3380;DHT22;1703;51.964;7.642;2023-04-01T13:53:56;12.90;99.90
3380;DHT22;1703;51.964;7.642;2023-04-01T13:56:42;12.90;99.90
3380;DHT22;1703;51.964;7.642;2023-04-01T13:59:39;12.90;99.90
3380;DHT22;1703;51.964;7.642;2023-04-01T14:05:17;13.00;99.90
3380;DHT22;1703;51.964;7.642;2023-04-01T14:08:00;13.10;99.90
3380;DHT22;1703;51.964;7.642;2023-04-01T14:10:36;13.20;99.90
3380;DHT22;1703;51.964;7.642;2023-04-01T14:13:11;13.20;99.90
3380;DHT22;1703;51.964;7.642;2023-04-01T14:15:55;13.30;99.90
3380;DHT22;1703;51.964;7.642;2023-04-01T14:18:36;13.40;99.90
3380;DHT22;1703;51.964;7.642;2023-04-01T14:21:20;13.40;99.90
3380;DHT22;1703;51.964;7.642;2023-04-01T14:27:17;13.60;99.90
3380;DHT22;1703;51.964;7.642;2023-04-01T14:29:54;13.60;99.90
3380;DHT22;1703;51.964;7.642;2023-04-01T14:32:34;13.60;99.90
3380;DHT22;1703;51.964;7.642;2023-04-01T14:35:29;13.80;99.90
3380;DHT22;1703;51.964;7.642;2023-04-01T14:38:31;14.00;99.90
3380;DHT22;1703;51.964;7.642;2023-04-01T14:41:19;14.10;99.90
3380;DHT22;1703;51.964;7.642;2023-04-01T14:44:18;14.20;99.90
3380;DHT22;1703;51.964;7.642;2023-04-01T14:47:07;14.20;99.90
3380;DHT22;1703;51.964;7.642;2023-04-01T14:49:41;14.20;99.90
3380;DHT22;1703;51.964;7.642;2023-04-01T14:52:13;14.30;99.90
3380;DHT22;1703;51.964;7.642;2023-04-01T14:54:43;14.30;99.90
3380;DHT22;1703;51.964;7.642;2023-04-01T14:57:12;14.30;99.90
3380;DHT22;1703;51.964;7.642;2023-04-01T14:59:40;14.30;99.90
3380;DHT22;1703;51.964;7.642;2023-04-01T15:02:15;14.40;99.90
3380;DHT22;1703;51.964;7.642;2023-04-01T15:04:56;14.60;99.90
3380;DHT22;1703;51.964;7.642;2023-04-01T15:08:03;14.60;99.90
3380;DHT22;1703;51.964;7.642;2023-04-01T15:10:58;14.70;99.90
3380;DHT22;1703;51.964;7.642;2023-04-01T15:16:55;14.70;99.90
3380;DHT22;1703;51.964;7.642;2023-04-01T15:19:35;14.60;99.90
3380;DHT22;1703;51.964;7.642;2023-04-01T15:22:25;14.60;99.90
3380;DHT22;1703;51.964;7.642;2023-04-01T15:25:13;14.50;99.90
3380;DHT22;1703;51.964;7.642;2023-04-01T15:27:45;14.50;99.90
3380;DHT22;1703;51.964;7.642;2023-04-01T15:30:34;14.50;99.90
3380;DHT22;1703;51.964;7.642;2023-04-01T15:33:17;14.50;99.90
3380;DHT22;1703;51.964;7.642;2023-04-01T15:35:49;14.40;99.90
3380;DHT22;1703;51.964;7.642;2023-04-01T15:38:31;14.40;99.90
3380;DHT22;1703;51.964;7.642;2023-04-01T15:41:07;14.10;99.90
3380;DHT22;1703;51.964;7.642;2023-04-01T15:43:41;14.00;99.90
3380;DHT22;1703;51.964;7.642;2023-04-01T15:46:20;14.00;99.90
3380;DHT22;1703;51.964;7.642;2023-04-01T15:48:57;14.00;99.90
3380;DHT22;1703;51.964;7.642;2023-04-01T15:51:36;13.90;99.90
3380;DHT22;1703;51.964;7.642;2023-04-01T15:54:38;13.80;99.90
3380;DHT22;1703;51.964;7.642;2023-04-01T15:57:25;13.80;99.90
3380;DHT22;1703;51.964;7.642;2023-04-01T16:00:11;13.80;99.90
3380;DHT22;1703;51.964;7.642;2023-04-01T16:02:46;13.60;99.90
3380;DHT22;1703;51.964;7.642;2023-04-01T16:05:31;13.70;99.90
3380;DHT22;1703;51.964;7.642;2023-04-01T16:08:22;13.70;99.90
3380;DHT22;1703;51.964;7.642;2023-04-01T16:11:02;13.60;99.90
3380;DHT22;1703;51.964;7.642;2023-04-01T16:13:45;13.60;99.90
3380;DHT22;1703;51.964;7.642;2023-04-01T16:16:19;13.40;99.90
3380;DHT22;1703;51.964;7.642;2023-04-01T16:19:12;13.40;99.90
3380;DHT22;1703;51.964;7.642;2023-04-01T16:21:49;13.30;99.90
3380;DHT22;1703;51.964;7.642;2023-04-01T16:24:23;13.30;99.90
3380;DHT22;1703;51.964;7.642;2023-04-01T16:26:56;13.20;99.90
3380;DHT22;1703;51.964;7.642;2023-04-01T16:29:30;13.30;99.90
3380;DHT22;1703;51.964;7.642;2023-04-01T16:32:14;13.30;99.90
3380;DHT22;1703;51.964;7.642;2023-04-01T16:34:46;13.30;99.90
3380;DHT22;1703;51.964;7.642;2023-04-01T16:37:20;13.30;99.90
3380;DHT22;1703;51.964;7.642;2023-04-01T16:39:52;13.30;99.90
3380;DHT22;1703;51.964;7.642;2023-04-01T16:42:30;13.10;99.90
3380;DHT22;1703;51.964;7.642;2023-04-01T16:45:06;13.20;99.90
3380;DHT22;1703;51.964;7.642;2023-04-01T16:47:47;13.20;99.90
3380;DHT22;1703;51.964;7.642;2023-04-01T16:50:20;13.10;99.90
3380;DHT22;1703;51.964;7.642;2023-04-01T16:52:57;13.10;99.90
3380;DHT22;1703;51.964;7.642;2023-04-01T16:55:35;12.90;99.90
3380;DHT22;1703;51.964;7.642;2023-04-01T16:58:10;12.80;99.90
3380;DHT22;1703;51.964;7.642;2023-04-01T17:00:44;12.80;99.90
3380;DHT22;1703;51.964;7.642;2023-04-01T17:03:17;12.80;99.90
3380;DHT22;1703;51.964;7.642;2023-04-01T17:06:00;12.80;99.90
3380;DHT22;1703;51.964;7.642;2023-04-01T17:08:39;12.70;99.90
3380;DHT22;1703;51.964;7.642;2023-04-01T17:11:16;12.70;99.90
3380;DHT22;1703;51.964;7.642;2023-04-01T17:13:52;12.60;99.90
3380;DHT22;1703;51.964;7.642;2023-04-01T17:19:32;12.50;99.90
3380;DHT22;1703;51.964;7.642;2023-04-01T17:22:11;12.40;99.90
3380;DHT22;1703;51.964;7.642;2023-04-01T17:24:51;12.40;99.90
3380;DHT22;1703;51.964;7.642;2023-04-01T17:27:34;12.40;99.90
3380;DHT22;1703;51.964;7.642;2023-04-01T17:30:13;12.40;99.90
3380;DHT22;1703;51.964;7.642;2023-04-01T17:32:51;12.40;99.90
3380;DHT22;1703;51.964;7.642;2023-04-01T17:35:27;12.40;99.90
3380;DHT22;1703;51.964;7.642;2023-04-01T17:38:07;12.30;99.90
3380;DHT22;1703;51.964;7.642;2023-04-01T17:40:44;12.30;99.90
3380;DHT22;1703;51.964;7.642;2023-04-01T17:43:24;12.30;99.90
3380;DHT22;1703;51.964;7.642;2023-04-01T17:45:56;12.20;99.90
3380;DHT22;1703;51.964;7.642;2023-04-01T17:48:32;12.20;99.90
3380;DHT22;1703;51.964;7.642;2023-04-01T17:51:15;12.20;99.90
3380;DHT22;1703;51.964;7.642;2023-04-01T17:53:49;12.10;99.90
3380;DHT22;1703;51.964;7.642;2023-04-01T17:56:34;12.00;99.90
3380;DHT22;1703;51.964;7.642;2023-04-01T17:59:20;12.00;99.90
3380;DHT22;1703;51.964;7.642;2023-04-01T18:01:59;11.90;99.90
3380;DHT22;1703;51.964;7.642;2023-04-01T18:04:52;11.90;99.90
3380;DHT22;1703;51.964;7.642;2023-04-01T18:07:37;11.80;99.90
3380;DHT22;1703;51.964;7.642;2023-04-01T18:10:19;11.70;99.90
3380;DHT22;1703;51.964;7.642;2023-04-01T18:13:11;11.70;99.90
3380;DHT22;1703;51.964;7.642;2023-04-01T18:15:47;11.70;99.90
3380;DHT22;1703;51.964;7.642;2023-04-01T18:18:41;11.60;99.90
3380;DHT22;1703;51.964;7.642;2023-04-01T18:21:14;11.60;99.90